createdAt,value
2018-07-17T00:00:02.003Z,1009.51
2018-07-17T00:01:02.073Z,1009.53
2018-07-17T00:02:02.139Z,1009.58
2018-07-17T00:03:02.199Z,1009.59
2018-07-17T00:04:02.267Z,1009.57
2018-07-17T00:05:02.331Z,1009.55
2018-07-17T00:06:02.407Z,1009.54
2018-07-17T00:07:02.472Z,1009.55
2018-07-17T00:08:02.533Z,1009.54
2018-07-17T00:09:02.600Z,1009.54
2018-07-17T00:10:02.667Z,1009.57
2018-07-17T00:11:02.739Z,1009.58
2018-07-17T00:12:02.803Z,1009.57
2018-07-17T00:13:02.867Z,1009.60
2018-07-17T00:14:02.931Z,1009.62
2018-07-17T00:15:02.999Z,1009.65
2018-07-17T00:16:03.072Z,1009.60
2018-07-17T00:17:03.140Z,1009.69
2018-07-17T00:18:03.199Z,1009.68
2018-07-17T00:19:03.264Z,1009.68
2018-07-17T00:20:03.332Z,1009.70
2018-07-17T00:21:03.408Z,1009.70
2018-07-17T00:22:03.476Z,1009.70
2018-07-17T00:23:03.531Z,1009.69
2018-07-17T00:24:03.596Z,1009.65
2018-07-17T00:25:03.664Z,1009.63
2018-07-17T00:26:03.735Z,1009.65
2018-07-17T00:27:03.804Z,1009.66
2018-07-17T00:28:03.869Z,1009.60
2018-07-17T00:29:03.928Z,1009.58
2018-07-17T00:30:03.997Z,1009.54
2018-07-17T00:31:04.068Z,1009.57
2018-07-17T00:32:04.264Z,1009.59
2018-07-17T00:33:04.196Z,1009.54
2018-07-17T00:34:04.264Z,1009.55
2018-07-17T00:35:04.328Z,1009.52
2018-07-17T00:36:04.400Z,1009.52
2018-07-17T00:37:04.469Z,1009.54
2018-07-17T00:38:04.528Z,1009.55
2018-07-17T00:39:04.592Z,1009.52
2018-07-17T00:40:04.664Z,1009.48
2018-07-17T00:41:04.733Z,1009.51
2018-07-17T00:42:04.800Z,1009.52
2018-07-17T00:43:04.861Z,1009.54
2018-07-17T00:44:04.940Z,1009.56
2018-07-17T00:45:04.993Z,1009.51
2018-07-17T00:46:05.069Z,1009.47
2018-07-17T00:47:05.144Z,1009.51
2018-07-17T00:48:05.193Z,1009.48
2018-07-17T00:49:05.257Z,1009.52
2018-07-17T00:50:05.334Z,1009.50
2018-07-17T00:51:05.509Z,1009.51
2018-07-17T00:52:05.460Z,1009.48
2018-07-17T00:53:05.528Z,1009.51
2018-07-17T00:54:05.590Z,1009.49
2018-07-17T00:55:05.666Z,1009.50
2018-07-17T00:56:05.729Z,1009.50
2018-07-17T00:57:05.797Z,1009.49
2018-07-17T00:58:05.852Z,1009.51
2018-07-17T00:59:05.920Z,1009.50
2018-07-17T01:00:05.985Z,1009.49
2018-07-17T01:01:06.126Z,1009.50
2018-07-17T01:02:06.125Z,1009.48
2018-07-17T01:03:06.185Z,1009.48
2018-07-17T01:04:06.255Z,1009.50
2018-07-17T01:05:06.317Z,1009.51
2018-07-17T01:06:06.403Z,1009.47
2018-07-17T01:07:06.512Z,1009.43
2018-07-17T01:08:06.517Z,1009.41
2018-07-17T01:09:06.581Z,1009.46
2018-07-17T01:10:06.649Z,1009.45
2018-07-17T01:11:06.721Z,1009.41
2018-07-17T01:12:06.790Z,1009.39
2018-07-17T01:13:06.849Z,1009.42
2018-07-17T01:14:06.913Z,1009.41
2018-07-17T01:15:06.981Z,1009.42
2018-07-17T01:16:07.054Z,1009.41
2018-07-17T01:17:07.121Z,1009.43
2018-07-17T01:18:07.181Z,1009.41
2018-07-17T01:19:07.245Z,1009.40
2018-07-17T01:20:07.317Z,1009.39
2018-07-17T01:21:07.386Z,1009.44
2018-07-17T01:22:07.450Z,1009.46
2018-07-17T01:23:07.514Z,1009.36
2018-07-17T01:24:07.578Z,1009.36
2018-07-17T01:25:07.642Z,1009.40
2018-07-17T01:26:07.718Z,1009.42
2018-07-17T01:27:07.786Z,1009.42
2018-07-17T01:28:07.842Z,1009.45
2018-07-17T01:29:07.919Z,1009.43
2018-07-17T01:30:07.974Z,1009.43
2018-07-17T01:31:08.051Z,1009.45
2018-07-17T01:32:08.114Z,1009.42
2018-07-17T01:33:08.174Z,1009.43
2018-07-17T01:34:08.238Z,1009.45
2018-07-17T01:35:08.306Z,1009.43
2018-07-17T01:36:08.686Z,1009.43
2018-07-17T01:37:08.443Z,1009.41
2018-07-17T01:38:08.507Z,1009.40
2018-07-17T01:39:08.575Z,1009.38
2018-07-17T01:40:08.635Z,1009.40
2018-07-17T01:41:08.718Z,1009.42
2018-07-17T01:42:08.775Z,1009.41
2018-07-17T01:43:08.913Z,1009.40
2018-07-17T01:44:08.901Z,1009.45
2018-07-17T01:45:08.969Z,1009.43
2018-07-17T01:46:09.047Z,1009.43
2018-07-17T01:47:09.107Z,1009.43
2018-07-17T01:48:09.170Z,1009.44
2018-07-17T01:49:09.231Z,1009.42
2018-07-17T01:50:09.302Z,1009.42
2018-07-17T01:51:09.372Z,1009.39
2018-07-17T01:52:09.439Z,1009.39
2018-07-17T01:53:09.499Z,1009.35
2018-07-17T01:54:09.563Z,1009.34
2018-07-17T01:55:09.626Z,1009.35
2018-07-17T01:56:09.699Z,1009.27
2018-07-17T01:57:09.766Z,1009.26
2018-07-17T01:58:09.831Z,1009.29
2018-07-17T01:59:09.892Z,1009.30
2018-07-17T02:00:09.959Z,1009.29
2018-07-17T02:01:10.035Z,1009.32
2018-07-17T02:02:10.096Z,1009.35
2018-07-17T02:03:10.155Z,1009.36
2018-07-17T02:04:10.227Z,1009.34
2018-07-17T02:05:10.287Z,1009.37
2018-07-17T02:06:10.523Z,1009.36
2018-07-17T02:07:10.419Z,1009.39
2018-07-17T02:08:10.491Z,1009.38
2018-07-17T02:09:10.551Z,1009.37
2018-07-17T02:10:10.619Z,1009.37
2018-07-17T02:11:10.696Z,1009.34
2018-07-17T02:12:10.755Z,1009.40
2018-07-17T02:13:10.815Z,1009.37
2018-07-17T02:14:10.886Z,1009.41
2018-07-17T02:15:10.948Z,1009.37
2018-07-17T02:16:11.023Z,1009.39
2018-07-17T02:17:11.092Z,1009.37
2018-07-17T02:18:11.148Z,1009.36
2018-07-17T02:19:11.212Z,1009.38
2018-07-17T02:20:11.280Z,1009.39
2018-07-17T02:21:11.352Z,1009.37
2018-07-17T02:22:11.420Z,1009.36
2018-07-17T02:23:11.476Z,1009.31
2018-07-17T02:24:11.546Z,1009.29
2018-07-17T02:25:11.608Z,1009.29
2018-07-17T02:26:11.683Z,1009.30
2018-07-17T02:27:11.748Z,1009.29
2018-07-17T02:28:11.811Z,1009.28
2018-07-17T02:29:11.872Z,1009.31
2018-07-17T02:30:11.939Z,1009.30
2018-07-17T02:31:12.012Z,1009.31
2018-07-17T02:32:12.076Z,1009.28
2018-07-17T02:33:12.136Z,1009.25
2018-07-17T02:34:12.204Z,1009.29
2018-07-17T02:35:12.272Z,1009.28
2018-07-17T02:36:12.460Z,1009.30
2018-07-17T02:37:12.408Z,1009.28
2018-07-17T02:38:12.468Z,1009.34
2018-07-17T02:39:12.536Z,1009.30
2018-07-17T02:40:12.600Z,1009.33
2018-07-17T02:41:12.676Z,1009.35
2018-07-17T02:42:12.813Z,1009.37
2018-07-17T02:43:12.804Z,1009.37
2018-07-17T02:44:12.869Z,1009.38
2018-07-17T02:45:12.932Z,1009.33
2018-07-17T02:46:13.017Z,1009.29
2018-07-17T02:47:13.086Z,1009.31
2018-07-17T02:48:13.131Z,1009.28
2018-07-17T02:49:13.201Z,1009.28
2018-07-17T02:50:13.267Z,1009.26
2018-07-17T02:51:13.345Z,1009.22
2018-07-17T02:52:13.392Z,1009.23
2018-07-17T02:53:13.460Z,1009.24
2018-07-17T02:54:13.529Z,1009.24
2018-07-17T02:55:13.597Z,1009.27
2018-07-17T02:56:13.664Z,1009.25
2018-07-17T02:57:13.737Z,1009.26
2018-07-17T02:58:13.789Z,1009.27
2018-07-17T02:59:13.858Z,1009.26
2018-07-17T03:00:13.933Z,1009.19
2018-07-17T03:01:13.993Z,1009.21
2018-07-17T03:02:14.065Z,1009.21
2018-07-17T03:03:14.121Z,1009.24
2018-07-17T03:04:14.189Z,1009.24
2018-07-17T03:05:14.257Z,1009.23
2018-07-17T03:06:14.360Z,1009.24
2018-07-17T03:07:14.385Z,1009.26
2018-07-17T03:08:14.453Z,1009.24
2018-07-17T03:09:14.517Z,1009.28
2018-07-17T03:10:14.581Z,1009.33
2018-07-17T03:11:14.653Z,1009.33
2018-07-17T03:12:14.730Z,1009.34
2018-07-17T03:13:14.781Z,1009.40
2018-07-17T03:14:14.848Z,1009.42
2018-07-17T03:15:14.914Z,1009.46
2018-07-17T03:16:14.986Z,1009.47
2018-07-17T03:17:15.058Z,1009.49
2018-07-17T03:18:15.110Z,1009.50
2018-07-17T03:19:15.177Z,1009.49
2018-07-17T03:20:15.242Z,1009.51
2018-07-17T03:21:15.426Z,1009.54
2018-07-17T03:22:15.381Z,1009.56
2018-07-17T03:23:15.442Z,1009.61
2018-07-17T03:24:15.506Z,1009.61
2018-07-17T03:25:15.574Z,1009.67
2018-07-17T03:26:15.647Z,1009.71
2018-07-17T03:27:15.718Z,1009.69
2018-07-17T03:28:15.774Z,1009.75
2018-07-17T03:29:15.842Z,1009.78
2018-07-17T03:30:15.906Z,1009.82
2018-07-17T03:31:15.982Z,1009.79
2018-07-17T03:32:16.042Z,1009.83
2018-07-17T03:33:16.102Z,1009.88
2018-07-17T03:34:16.173Z,1009.89
2018-07-17T03:35:16.234Z,1009.89
2018-07-17T03:36:16.337Z,1009.89
2018-07-17T03:37:16.367Z,1009.84
2018-07-17T03:38:16.442Z,1009.87
2018-07-17T03:39:16.498Z,1009.84
2018-07-17T03:40:16.566Z,1009.80
2018-07-17T03:41:16.647Z,1009.84
2018-07-17T03:42:16.702Z,1009.87
2018-07-17T03:43:16.763Z,1009.93
2018-07-17T03:44:16.831Z,1009.98
2018-07-17T03:45:16.903Z,1009.98
2018-07-17T03:46:16.978Z,1009.96
2018-07-17T03:47:17.047Z,1009.90
2018-07-17T03:48:17.116Z,1009.88
2018-07-17T03:49:17.159Z,1009.89
2018-07-17T03:50:17.243Z,1009.86
2018-07-17T03:51:17.295Z,1009.88
2018-07-17T03:52:17.389Z,1009.97
2018-07-17T03:53:17.423Z,1009.99
2018-07-17T03:54:17.491Z,1010.02
2018-07-17T03:55:17.555Z,1010.00
2018-07-17T03:56:17.623Z,1009.99
2018-07-17T03:57:17.696Z,1009.94
2018-07-17T03:58:17.759Z,1009.97
2018-07-17T03:59:17.819Z,1009.97
2018-07-17T04:00:17.888Z,1010.01
2018-07-17T04:01:17.951Z,1010.00
2018-07-17T04:02:18.024Z,1009.97
2018-07-17T04:03:18.092Z,1009.96
2018-07-17T04:04:18.199Z,1009.93
2018-07-17T04:05:18.215Z,1009.88
2018-07-17T04:06:18.284Z,1009.88
2018-07-17T04:07:18.748Z,1009.92
2018-07-17T04:08:18.416Z,1010.00
2018-07-17T04:09:18.480Z,1009.99
2018-07-17T04:10:18.550Z,1010.03
2018-07-17T04:11:18.615Z,1009.99
2018-07-17T04:12:18.680Z,1010.02
2018-07-17T04:13:18.856Z,1010.01
2018-07-17T04:14:18.814Z,1010.00
2018-07-17T04:15:18.876Z,1009.96
2018-07-17T04:16:18.944Z,1009.98
2018-07-17T04:17:19.008Z,1009.99
2018-07-17T04:18:19.089Z,1010.01
2018-07-17T04:19:19.140Z,1010.05
2018-07-17T04:20:19.209Z,1010.06
2018-07-17T04:21:19.272Z,1010.07
2018-07-17T04:22:19.385Z,1010.04
2018-07-17T04:23:19.412Z,1010.06
2018-07-17T04:24:19.476Z,1010.03
2018-07-17T04:25:19.540Z,1010.05
2018-07-17T04:26:19.606Z,1010.05
2018-07-17T04:27:19.671Z,1010.09
2018-07-17T04:28:19.744Z,1010.12
2018-07-17T04:29:19.814Z,1010.14
2018-07-17T04:30:19.868Z,1010.16
2018-07-17T04:31:19.939Z,1010.16
2018-07-17T04:32:19.997Z,1010.18
2018-07-17T04:33:20.072Z,1010.22
2018-07-17T04:34:20.142Z,1010.24
2018-07-17T04:35:20.201Z,1010.27
2018-07-17T04:36:20.264Z,1010.28
2018-07-17T04:37:20.333Z,1010.25
2018-07-17T04:38:20.410Z,1010.25
2018-07-17T04:39:20.473Z,1010.25
2018-07-17T04:40:20.529Z,1010.25
2018-07-17T04:41:20.597Z,1010.27
2018-07-17T04:42:20.661Z,1010.27
2018-07-17T04:43:20.737Z,1010.23
2018-07-17T04:44:20.821Z,1010.26
2018-07-17T04:45:20.873Z,1010.28
2018-07-17T04:46:20.933Z,1010.27
2018-07-17T04:47:20.995Z,1010.29
2018-07-17T04:48:21.066Z,1010.27
2018-07-17T04:49:21.133Z,1010.25
2018-07-17T04:50:21.193Z,1010.26
2018-07-17T04:51:21.257Z,1010.21
2018-07-17T04:52:21.325Z,1010.25
2018-07-17T04:53:21.397Z,1010.27
2018-07-17T04:54:21.461Z,1010.31
2018-07-17T04:55:21.522Z,1010.29
2018-07-17T04:56:21.589Z,1010.31
2018-07-17T04:57:21.656Z,1010.31
2018-07-17T04:58:21.725Z,1010.35
2018-07-17T04:59:21.794Z,1010.33
2018-07-17T05:00:21.858Z,1010.39
2018-07-17T05:01:21.924Z,1010.40
2018-07-17T05:02:21.986Z,1010.41
2018-07-17T05:03:22.058Z,1010.45
2018-07-17T05:04:22.126Z,1010.44
2018-07-17T05:05:22.197Z,1010.47
2018-07-17T05:06:22.254Z,1010.50
2018-07-17T05:07:22.318Z,1010.51
2018-07-17T05:08:22.386Z,1010.49
2018-07-17T05:09:22.457Z,1010.50
2018-07-17T05:10:22.514Z,1010.51
2018-07-17T05:11:22.581Z,1010.48
2018-07-17T05:12:22.650Z,1010.52
2018-07-17T05:13:22.721Z,1010.55
2018-07-17T05:14:22.786Z,1010.61
2018-07-17T05:15:22.850Z,1010.61
2018-07-17T05:16:22.970Z,1010.62
2018-07-17T05:17:22.986Z,1010.63
2018-07-17T05:18:23.053Z,1010.66
2018-07-17T05:19:23.292Z,1010.63
2018-07-17T05:20:23.183Z,1010.65
2018-07-17T05:21:23.290Z,1010.67
2018-07-17T05:22:23.313Z,1010.64
2018-07-17T05:23:23.389Z,1010.68
2018-07-17T05:24:23.449Z,1010.69
2018-07-17T05:25:23.509Z,1010.67
2018-07-17T05:26:23.577Z,1010.70
2018-07-17T05:27:23.650Z,1010.66
2018-07-17T05:28:23.717Z,1010.64
2018-07-17T05:29:23.785Z,1010.69
2018-07-17T05:30:23.845Z,1010.68
2018-07-17T05:31:23.909Z,1010.66
2018-07-17T05:32:23.977Z,1010.67
2018-07-17T05:33:24.049Z,1010.67
2018-07-17T05:34:24.117Z,1010.66
2018-07-17T05:35:24.191Z,1010.65
2018-07-17T05:36:24.245Z,1010.68
2018-07-17T05:37:24.309Z,1010.70
2018-07-17T05:38:24.385Z,1010.69
2018-07-17T05:39:24.453Z,1010.71
2018-07-17T05:40:24.509Z,1010.72
2018-07-17T05:41:24.577Z,1010.72
2018-07-17T05:42:24.645Z,1010.73
2018-07-17T05:43:24.717Z,1010.72
2018-07-17T05:44:24.785Z,1010.72
2018-07-17T05:45:24.849Z,1010.73
2018-07-17T05:46:24.929Z,1010.76
2018-07-17T05:47:24.981Z,1010.77
2018-07-17T05:48:25.057Z,1010.78
2018-07-17T05:49:25.129Z,1010.81
2018-07-17T05:50:25.181Z,1010.83
2018-07-17T05:51:25.245Z,1010.83
2018-07-17T05:52:25.314Z,1010.83
2018-07-17T05:53:25.405Z,1010.84
2018-07-17T05:54:25.469Z,1010.84
2018-07-17T05:55:25.514Z,1010.82
2018-07-17T05:56:25.581Z,1010.82
2018-07-17T05:57:25.649Z,1010.82
2018-07-17T05:58:25.721Z,1010.81
2018-07-17T05:59:25.790Z,1010.81
2018-07-17T06:00:25.849Z,1010.81
2018-07-17T06:01:25.934Z,1010.84
2018-07-17T06:02:25.985Z,1010.84
2018-07-17T06:03:26.160Z,1010.85
2018-07-17T06:04:26.125Z,1010.86
2018-07-17T06:05:26.190Z,1010.87
2018-07-17T06:06:26.254Z,1010.91
2018-07-17T06:07:26.322Z,1010.92
2018-07-17T06:08:26.418Z,1010.90
2018-07-17T06:09:26.457Z,1010.92
2018-07-17T06:10:26.583Z,1010.94
2018-07-17T06:11:26.595Z,1010.97
2018-07-17T06:12:26.654Z,1010.96
2018-07-17T06:13:26.731Z,1010.98
2018-07-17T06:14:26.802Z,1010.97
2018-07-17T06:15:26.859Z,1010.97
2018-07-17T06:16:26.928Z,1010.96
2018-07-17T06:17:26.995Z,1010.97
2018-07-17T06:18:27.071Z,1011.00
2018-07-17T06:19:27.136Z,1011.03
2018-07-17T06:20:27.195Z,1010.99
2018-07-17T06:21:27.264Z,1011.02
2018-07-17T06:22:27.336Z,1011.06
2018-07-17T06:23:27.403Z,1011.08
2018-07-17T06:24:27.472Z,1011.07
2018-07-17T06:25:27.532Z,1011.05
2018-07-17T06:26:27.600Z,1011.07
2018-07-17T06:27:27.668Z,1011.31
2018-07-17T06:28:27.746Z,1011.88
2018-07-17T06:29:27.811Z,1012.37
2018-07-17T06:30:27.874Z,1012.57
2018-07-17T06:31:27.940Z,1012.53
2018-07-17T06:32:28.012Z,1012.51
2018-07-17T06:33:28.231Z,1012.56
2018-07-17T06:34:28.153Z,1012.60
2018-07-17T06:35:28.220Z,1012.61
2018-07-17T06:36:28.292Z,1012.60
2018-07-17T06:37:28.360Z,1012.54
2018-07-17T06:38:28.440Z,1012.50
2018-07-17T06:39:28.512Z,1012.50
2018-07-17T06:40:28.575Z,1012.64
2018-07-17T06:41:28.652Z,1012.72
2018-07-17T06:42:28.724Z,1012.59
2018-07-17T06:43:28.804Z,1011.93
2018-07-17T06:44:28.876Z,1012.02
2018-07-17T06:45:28.944Z,1012.35
2018-07-17T06:46:29.020Z,1012.19
2018-07-17T06:47:29.092Z,1011.82
2018-07-17T06:48:29.273Z,1011.72
2018-07-17T06:49:29.240Z,1011.69
2018-07-17T06:50:29.472Z,1011.83
2018-07-17T06:51:29.389Z,1012.36
2018-07-17T06:52:29.461Z,1012.25
2018-07-17T06:53:29.541Z,1012.38
2018-07-17T06:54:29.617Z,1011.91
2018-07-17T06:55:29.685Z,1011.61
2018-07-17T06:56:29.757Z,1011.53
2018-07-17T06:57:29.877Z,1011.49
2018-07-17T06:58:29.909Z,1011.52
2018-07-17T06:59:29.982Z,1011.42
2018-07-17T07:00:30.050Z,1011.34
2018-07-17T07:01:30.125Z,1011.32
2018-07-17T07:02:30.197Z,1011.28
2018-07-17T07:03:30.419Z,1011.29
2018-07-17T07:04:30.342Z,1011.30
2018-07-17T07:05:30.410Z,1011.31
2018-07-17T07:06:30.482Z,1011.40
2018-07-17T07:07:30.550Z,1011.38
2018-07-17T07:08:30.629Z,1011.39
2018-07-17T07:09:30.701Z,1011.38
2018-07-17T07:10:30.766Z,1011.40
2018-07-17T07:11:30.834Z,1011.40
2018-07-17T07:12:30.905Z,1011.44
2018-07-17T07:13:30.982Z,1011.43
2018-07-17T07:14:31.053Z,1011.45
2018-07-17T07:15:31.118Z,1011.47
2018-07-17T07:16:31.185Z,1011.46
2018-07-17T07:17:31.257Z,1011.41
2018-07-17T07:18:31.342Z,1011.42
2018-07-17T07:19:31.397Z,1011.37
2018-07-17T07:20:31.472Z,1011.39
2018-07-17T07:21:31.542Z,1011.45
2018-07-17T07:22:31.610Z,1011.49
2018-07-17T07:23:31.686Z,1011.46
2018-07-17T07:24:31.754Z,1011.46
2018-07-17T07:25:31.822Z,1011.44
2018-07-17T07:26:31.890Z,1011.44
2018-07-17T07:27:31.958Z,1011.42
2018-07-17T07:28:32.035Z,1011.47
2018-07-17T07:29:32.110Z,1011.45
2018-07-17T07:30:32.171Z,1011.56
2018-07-17T07:31:32.238Z,1011.44
2018-07-17T07:32:32.311Z,1011.41
2018-07-17T07:33:32.527Z,1011.49
2018-07-17T07:34:32.452Z,1011.47
2018-07-17T07:35:32.519Z,1011.44
2018-07-17T07:36:32.589Z,1011.42
2018-07-17T07:37:32.659Z,1011.37
2018-07-17T07:38:32.739Z,1011.38
2018-07-17T07:39:32.806Z,1011.36
2018-07-17T07:40:32.867Z,1011.36
2018-07-17T07:41:32.938Z,1011.35
2018-07-17T07:42:33.007Z,1011.36
2018-07-17T07:43:33.226Z,1011.36
2018-07-17T07:44:33.146Z,1011.43
2018-07-17T07:45:33.215Z,1011.38
2018-07-17T07:46:33.286Z,1011.40
2018-07-17T07:47:33.351Z,1011.37
2018-07-17T07:48:33.430Z,1011.38
2018-07-17T07:49:33.502Z,1011.41
2018-07-17T07:50:33.562Z,1011.41
2018-07-17T07:51:33.635Z,1011.44
2018-07-17T07:52:33.703Z,1011.46
2018-07-17T07:53:33.779Z,1011.48
2018-07-17T07:54:33.846Z,1011.50
2018-07-17T07:55:33.965Z,1011.50
2018-07-17T07:56:33.979Z,1011.50
2018-07-17T07:57:34.052Z,1011.51
2018-07-17T07:58:34.147Z,1011.58
2018-07-17T07:59:34.187Z,1011.60
2018-07-17T08:00:34.260Z,1011.64
2018-07-17T08:01:34.331Z,1011.64
2018-07-17T08:02:34.395Z,1011.79
2018-07-17T08:03:34.508Z,1011.81
2018-07-17T08:04:34.548Z,1011.83
2018-07-17T08:05:34.608Z,1011.91
2018-07-17T08:06:34.676Z,1011.96
2018-07-17T08:07:34.748Z,1012.28
2018-07-17T08:08:34.824Z,1012.40
2018-07-17T08:09:34.896Z,1012.49
2018-07-17T08:10:34.960Z,1012.15
2018-07-17T08:11:35.098Z,1012.18
2018-07-17T08:12:35.100Z,1012.45
2018-07-17T08:13:35.176Z,1012.46
2018-07-17T08:14:35.269Z,1012.48
2018-07-17T08:15:35.321Z,1012.39
2018-07-17T08:16:35.392Z,1012.07
2018-07-17T08:17:35.468Z,1012.34
2018-07-17T08:18:35.545Z,1012.30
2018-07-17T08:19:35.629Z,1012.29
2018-07-17T08:20:35.697Z,1012.46
2018-07-17T08:21:35.810Z,1012.41
2018-07-17T08:22:35.841Z,1012.36
2018-07-17T08:23:35.916Z,1012.24
2018-07-17T08:24:35.997Z,1012.31
2018-07-17T08:25:36.073Z,1012.44
2018-07-17T08:26:36.141Z,1012.50
2018-07-17T08:27:36.217Z,1012.24
2018-07-17T08:28:36.295Z,1012.39
2018-07-17T08:29:36.386Z,1012.20
2018-07-17T08:30:36.453Z,1012.13
2018-07-17T08:31:36.525Z,1011.79
2018-07-17T08:32:36.600Z,1011.78
2018-07-17T08:33:36.677Z,1011.77
2018-07-17T08:34:36.761Z,1011.84
2018-07-17T08:35:36.837Z,1011.83
2018-07-17T08:36:36.905Z,1011.89
2018-07-17T08:37:36.981Z,1012.14
2018-07-17T08:38:37.057Z,1012.22
2018-07-17T08:39:37.249Z,1012.51
2018-07-17T08:40:37.209Z,1012.43
2018-07-17T08:41:37.285Z,1012.41
2018-07-17T08:42:37.362Z,1012.27
2018-07-17T08:43:37.480Z,1012.23
2018-07-17T08:44:37.521Z,1012.28
2018-07-17T08:45:37.597Z,1012.00
2018-07-17T08:46:37.770Z,1012.10
2018-07-17T08:47:37.737Z,1012.31
2018-07-17T08:48:37.838Z,1012.31
2018-07-17T08:49:37.909Z,1012.21
2018-07-17T08:50:37.980Z,1012.15
2018-07-17T08:51:38.049Z,1012.09
2018-07-17T08:52:38.125Z,1012.13
2018-07-17T08:53:38.202Z,1012.11
2018-07-17T08:54:38.397Z,1012.09
2018-07-17T08:55:38.373Z,1012.09
2018-07-17T08:56:38.433Z,1012.06
2018-07-17T08:57:38.509Z,1012.08
2018-07-17T08:58:38.586Z,1012.03
2018-07-17T08:59:38.661Z,1012.08
2018-07-17T09:00:38.765Z,1011.86
2018-07-17T09:01:38.821Z,1011.87
2018-07-17T09:02:38.893Z,1011.92
2018-07-17T09:03:38.977Z,1011.96
2018-07-17T09:04:39.046Z,1011.96
2018-07-17T09:05:39.138Z,1011.96
2018-07-17T09:06:39.206Z,1011.98
2018-07-17T09:07:39.274Z,1011.99
2018-07-17T09:08:39.350Z,1011.95
2018-07-17T09:09:39.439Z,1011.87
2018-07-17T09:10:39.538Z,1011.98
2018-07-17T09:11:39.627Z,1011.92
2018-07-17T09:12:39.655Z,1011.89
2018-07-17T09:13:39.731Z,1011.95
2018-07-17T09:14:39.807Z,1011.90
2018-07-17T09:15:39.887Z,1011.92
2018-07-17T09:16:39.959Z,1012.06
2018-07-17T09:17:40.031Z,1012.13
2018-07-17T09:18:40.103Z,1012.18
2018-07-17T09:19:40.179Z,1012.14
2018-07-17T09:20:40.251Z,1012.12
2018-07-17T09:21:40.590Z,1012.12
2018-07-17T09:22:40.403Z,1011.96
2018-07-17T09:23:40.479Z,1012.07
2018-07-17T09:24:40.552Z,1012.19
2018-07-17T09:25:40.637Z,1012.22
2018-07-17T09:26:40.711Z,1012.22
2018-07-17T09:27:40.787Z,1012.25
2018-07-17T09:28:40.855Z,1012.09
2018-07-17T09:29:40.934Z,1012.06
2018-07-17T09:30:41.007Z,1012.15
2018-07-17T09:31:41.100Z,1012.19
2018-07-17T09:32:41.155Z,1012.17
2018-07-17T09:33:41.292Z,1012.12
2018-07-17T09:34:41.307Z,1012.14
2018-07-17T09:35:41.383Z,1012.17
2018-07-17T09:36:41.467Z,1012.24
2018-07-17T09:37:41.547Z,1012.19
2018-07-17T09:38:41.611Z,1012.21
2018-07-17T09:39:41.687Z,1012.20
2018-07-17T09:40:41.763Z,1012.20
2018-07-17T09:41:41.848Z,1012.18
2018-07-17T09:42:41.955Z,1012.16
2018-07-17T09:43:41.999Z,1012.13
2018-07-17T09:44:42.075Z,1012.17
2018-07-17T09:45:42.257Z,1012.16
2018-07-17T09:46:42.223Z,1012.11
2018-07-17T09:47:42.325Z,1012.09
2018-07-17T09:48:42.375Z,1012.10
2018-07-17T09:49:42.452Z,1012.10
2018-07-17T09:50:42.531Z,1012.12
2018-07-17T09:51:42.608Z,1012.08
2018-07-17T09:52:42.688Z,1012.09
2018-07-17T09:53:42.767Z,1012.04
2018-07-17T09:54:42.835Z,1012.05
2018-07-17T09:55:42.911Z,1012.12
2018-07-17T09:56:42.987Z,1012.07
2018-07-17T09:57:43.071Z,1012.11
2018-07-17T09:58:43.151Z,1012.10
2018-07-17T09:59:43.236Z,1012.13
2018-07-17T10:00:43.303Z,1012.09
2018-07-17T10:01:43.371Z,1012.09
2018-07-17T10:02:43.459Z,1012.11
2018-07-17T10:03:43.535Z,1012.12
2018-07-17T10:04:43.632Z,1012.06
2018-07-17T10:05:43.686Z,1012.11
2018-07-17T10:06:43.755Z,1012.17
2018-07-17T10:07:43.838Z,1012.15
2018-07-17T10:08:43.915Z,1012.13
2018-07-17T10:09:43.987Z,1012.10
2018-07-17T10:10:44.059Z,1012.11
2018-07-17T10:11:44.186Z,1012.15
2018-07-17T10:12:44.212Z,1012.12
2018-07-17T10:13:44.439Z,1012.10
2018-07-17T10:14:44.364Z,1012.10
2018-07-17T10:15:44.440Z,1012.16
2018-07-17T10:16:44.521Z,1012.10
2018-07-17T10:17:44.592Z,1012.11
2018-07-17T10:18:44.673Z,1012.11
2018-07-17T10:19:44.748Z,1012.13
2018-07-17T10:20:44.817Z,1012.14
2018-07-17T10:21:44.893Z,1012.08
2018-07-17T10:22:44.969Z,1012.07
2018-07-17T10:23:45.053Z,1012.12
2018-07-17T10:24:45.137Z,1012.03
2018-07-17T10:25:45.197Z,1012.06
2018-07-17T10:26:45.341Z,1011.98
2018-07-17T10:27:45.349Z,1012.02
2018-07-17T10:28:45.577Z,1012.01
2018-07-17T10:29:45.497Z,1011.99
2018-07-17T10:30:45.573Z,1012.00
2018-07-17T10:31:45.649Z,1011.99
2018-07-17T10:32:45.722Z,1011.98
2018-07-17T10:33:45.805Z,1011.95
2018-07-17T10:34:45.882Z,1011.98
2018-07-17T10:35:45.954Z,1011.95
2018-07-17T10:36:46.021Z,1012.00
2018-07-17T10:37:46.097Z,1012.02
2018-07-17T10:38:46.386Z,1012.02
2018-07-17T10:39:46.253Z,1012.05
2018-07-17T10:40:46.321Z,1012.03
2018-07-17T10:41:46.400Z,1012.02
2018-07-17T10:42:46.473Z,1011.99
2018-07-17T10:43:46.553Z,1011.93
2018-07-17T10:44:46.629Z,1011.97
2018-07-17T10:45:46.701Z,1011.92
2018-07-17T10:46:46.774Z,1011.91
2018-07-17T10:47:46.850Z,1011.85
2018-07-17T10:48:46.930Z,1011.86
2018-07-17T10:49:47.002Z,1011.89
2018-07-17T10:50:47.074Z,1011.86
2018-07-17T10:51:47.146Z,1011.84
2018-07-17T10:52:47.222Z,1011.84
2018-07-17T10:53:47.294Z,1011.85
2018-07-17T10:54:47.482Z,1011.80
2018-07-17T10:55:47.447Z,1011.82
2018-07-17T10:56:47.519Z,1011.82
2018-07-17T10:57:47.595Z,1011.83
2018-07-17T10:58:47.667Z,1011.80
2018-07-17T10:59:47.751Z,1011.83
2018-07-17T11:00:47.844Z,1011.77
2018-07-17T11:01:47.891Z,1011.81
2018-07-17T11:02:47.971Z,1011.80
2018-07-17T11:03:48.055Z,1011.83
2018-07-17T11:04:48.131Z,1011.77
2018-07-17T11:05:48.198Z,1011.79
2018-07-17T11:06:48.263Z,1011.77
2018-07-17T11:07:48.335Z,1011.81
2018-07-17T11:08:48.413Z,1011.77
2018-07-17T11:09:48.497Z,1011.75
2018-07-17T11:10:48.567Z,1011.75
2018-07-17T11:11:48.631Z,1011.76
2018-07-17T11:12:48.706Z,1011.76
2018-07-17T11:13:48.781Z,1011.71
2018-07-17T11:14:48.859Z,1011.64
2018-07-17T11:15:48.934Z,1011.61
2018-07-17T11:16:49.003Z,1011.62
2018-07-17T11:17:49.074Z,1011.61
2018-07-17T11:18:49.152Z,1011.62
2018-07-17T11:19:49.223Z,1011.63
2018-07-17T11:20:49.402Z,1011.61
2018-07-17T11:21:49.367Z,1011.64
2018-07-17T11:22:49.506Z,1011.58
2018-07-17T11:23:49.515Z,1011.57
2018-07-17T11:24:49.587Z,1011.59
2018-07-17T11:25:49.667Z,1011.57
2018-07-17T11:26:49.743Z,1011.56
2018-07-17T11:27:49.811Z,1011.50
2018-07-17T11:28:49.888Z,1011.61
2018-07-17T11:29:49.955Z,1011.51
2018-07-17T11:30:50.036Z,1011.58
2018-07-17T11:31:50.119Z,1011.50
2018-07-17T11:32:50.175Z,1011.52
2018-07-17T11:33:50.248Z,1011.49
2018-07-17T11:34:50.327Z,1011.55
2018-07-17T11:35:50.644Z,1011.56
2018-07-17T11:36:50.467Z,1011.56
2018-07-17T11:37:50.544Z,1011.50
2018-07-17T11:38:50.690Z,1011.53
2018-07-17T11:39:50.692Z,1011.52
2018-07-17T11:40:50.768Z,1011.48
2018-07-17T11:41:50.841Z,1011.44
2018-07-17T11:42:50.908Z,1011.52
2018-07-17T11:43:50.982Z,1011.58
2018-07-17T11:44:51.052Z,1011.47
2018-07-17T11:45:51.232Z,1011.46
2018-07-17T11:46:51.201Z,1011.50
2018-07-17T11:47:51.345Z,1011.56
2018-07-17T11:48:51.348Z,1011.52
2018-07-17T11:49:51.419Z,1011.57
2018-07-17T11:50:51.500Z,1011.48
2018-07-17T11:51:51.571Z,1011.44
2018-07-17T11:52:51.639Z,1011.45
2018-07-17T11:53:51.712Z,1011.44
2018-07-17T11:54:51.789Z,1011.46
2018-07-17T11:55:51.864Z,1011.53
2018-07-17T11:56:51.939Z,1011.51
2018-07-17T11:57:52.004Z,1011.50
2018-07-17T11:58:52.097Z,1011.47
2018-07-17T11:59:52.154Z,1011.44
2018-07-17T12:00:52.228Z,1011.40
2018-07-17T12:01:52.316Z,1011.47
2018-07-17T12:02:52.372Z,1011.45
2018-07-17T12:03:52.448Z,1011.48
2018-07-17T12:04:52.524Z,1011.44
2018-07-17T12:05:52.666Z,1011.49